Alamo, Nevada Weather observations

Data are for observation ending at time listed.
 Day   Time    Ave.   Ave.  Ave.  Vector   Max.   Stn.    Total    Solar   Ave.  
  of    of     Air    Rel.  Wind   Wind    Wind   Baro.  Precip.   Rad.    Soil  
Year   Day     Temp.  Hum.  Speed  Dir.    Gust   Pres.                    Temp. 
2016   (PST)    F      %     mph   deg.    mph     mb.     in.     W/m2     F   
------------------------------------------------------------------------------
 144    2:30   45.6    58    0.2    54      0.9   891.3    0.00       0    62.0
 144    2:40   45.1    59    0.4    12      1.7   891.2    0.00       0    61.8
 144    2:50   45.0    58    0.7     0      1.5   891.3    0.00       0    61.6
 144    3:00   45.0    57    0.8    26      2.0   891.4    0.00       0    61.3
 144    3:10   44.8    58    0.8   354      1.8   891.5    0.00       0    61.1
 144    3:20   44.3    57    0.6    43      1.9   891.3    0.00       0    60.9
 144    3:30   43.8    59    1.0   118      3.1   891.4    0.00       0    60.7
 144    3:40   43.4    61    0.4    59      2.4   891.5    0.00       0    60.5
 144    3:50   42.9    60    1.1    30      2.2   891.5    0.00       0    60.3
 144    4:00   42.9    59    1.0    42      2.4   891.6    0.00       0    60.1
 144    4:10   42.7    58    0.6    19      2.2   891.5    0.00       0    59.9
 144    4:20   43.2    56    0.6    34      1.5   891.5    0.00       0    59.7
 144    4:30   42.8    58    0.3   352      1.4   891.6    0.00       0    59.5
 144    4:40   42.0    60    0.9     3      1.5   891.7    0.00       4    59.3
 144    4:50   41.8    61    0.6    50      1.2   891.7    0.00      12    59.1
 144    5:00   42.0    60    0.2    27      0.9   891.8    0.00      14    59.0
 144    5:10   42.1    61    0.0     0      0.0   891.8    0.00      16    58.8
 144    5:20   43.4    60    0.0   359      1.1   891.9    0.00      89    58.7
 144    5:30   46.8    53    0.2     8      0.9   892.0    0.00     128    58.6
 144    5:40   47.8    52    0.9    58      1.8   892.1    0.00     157    58.5
 144    5:50   48.9    46    1.0    36      1.8   892.2    0.00     192    58.6
 144    6:00   51.4    40    0.3     0      0.9   892.2    0.00     215    58.8
 144    6:10   54.0    37    0.2   309      1.0   892.3    0.00     142    59.1
 144    6:20   56.6    33    0.7   306      2.1   892.3    0.00      45    59.5
 144    6:30   57.5    31    0.7   332      1.7   892.3    0.00      44    60.0
 144    6:40   58.2    29    1.3   336      3.2   892.3    0.00      82    60.5
 144    6:50   58.3    28    1.5   317      3.1   892.3    0.00     168    61.1
 144    7:00   58.5    28    1.2   305      3.1   892.3    0.00     318    61.7
 144    7:10   58.8    28    0.9   330      3.1   892.3    0.00     103    62.3
 144    7:20   58.8    28    1.5    20      3.3   892.2    0.00      73    62.5
 144    7:30   59.5    28    1.8     5      3.9   892.1    0.00      75    62.5
 144    7:40   60.5    28    1.0   359      2.7   892.1    0.00      84    62.4
 144    7:50   61.4    26    0.7   227      2.1   892.1    0.00     145    62.3
 144    8:00   62.2    26    1.3    63      2.6   892.1    0.00      59    62.2
 144    8:10   63.4    24    1.1   186      2.6   892.1    0.00      44    62.1
 144    8:20   64.0    23    1.2   195      3.2   891.9    0.00      44    62.0
 144    8:30   64.5    24    2.2   203      5.2   891.9    0.00      47    62.0
 144    8:40   65.6    23    2.1   198      5.4   891.9    0.00      56    61.9
 144    8:50   66.5    22    2.5   191      6.3   891.8    0.00      90    61.9
 144    9:00   67.7    21    1.6   193      7.2   891.7    0.00      57    61.9
 144    9:10   67.9    21    3.0   197      8.3   891.6    0.00      51    62.0
 144    9:20   68.2    20    2.9   195      6.9   891.5    0.00      58    62.1
 144    9:30   68.8    21    2.3   182      6.6   891.5    0.00      71    62.2
 144    9:40   69.5    19    2.2   181      7.7   891.5    0.00      72    62.3
 144    9:50   69.4    19    3.4   202      7.1   891.4    0.00     202    62.4
 144   10:00   69.9    19    3.0   177      8.1   891.4    0.00     173    62.6
 144   10:10   70.1    20    4.2   185      9.1   891.3    0.00     168    62.7
 144   10:20   69.9    19    2.6   180      8.3   891.3    0.00     102    62.9
 144   10:30   70.8    20    3.2   180      9.1   891.4    0.00     132    63.2
 144   10:40   70.8    20    3.7   176     10.3   891.4    0.00     895    63.5
 144   10:50   71.5    19    3.1   181     10.5   891.4    0.00     993    64.2
 144   11:00   71.5    18    2.6   175     10.7   891.3    0.00    1006    65.1
 144   11:10   72.4    17    2.3   172      7.7   891.2    0.00    1021    65.9
 144   11:20   72.8    17    2.6   176      8.3   891.0    0.00    1018    66.6
 144   11:30   72.9    17    2.9   182     12.8   890.8    0.00    1011    67.0
 144   11:40   73.5    17    2.0   137      8.6   890.7    0.00    1049    67.4
 144   11:50   73.8    17    2.6   167     13.7   890.7    0.00    1048    67.9
 144   12:00   74.2    18    2.3   187      7.7   890.6    0.00    1048    69.0
 144   12:10   74.5    17    2.5   174      8.8   890.5    0.00    1051    70.6
 144   12:20   75.0    18    3.2   178     11.6   890.3    0.00    1045    72.4
 144   12:30   74.9    18    3.2   190      9.9   890.2    0.00    1037    74.0
 144   12:40   74.6    17    3.4   203     10.3   890.0    0.00    1030    75.4
 144   12:50   75.1    17    2.0   148      8.6   889.8    0.00    1026    76.7
 144   13:00   75.2    18    3.0   177     10.6   889.7    0.00    1011    78.0
 144   13:10   75.4    18    2.9   186     10.4   889.6    0.00     991    79.0
 144   13:20   75.8    17    1.9   171      7.6   889.5    0.00     997    79.9
 144   13:30   76.6    16    2.2   167      7.5   889.3    0.00     987    80.7
 144   13:40   75.7    15    3.2   124     12.1   889.1    0.00     974    81.6
 144   13:50   76.5    16    3.2   174     10.0   889.0    0.00     949    82.3
 144   14:00   75.9    17    2.6   175      8.9   889.0    0.00     922    82.8
 144   14:10   76.2    16    2.4   152     10.1   888.9    0.00     901    83.4
 144   14:20   76.2    17    3.2   182     11.1   888.8    0.00     897    83.8
 144   14:30   76.6    15    2.0   147      6.2   888.6    0.00     854    84.3
 144   14:40   77.1    16    2.2   177      8.3   888.5    0.00     804    84.7
 144   14:50   75.8    16    3.4   183     10.5   888.4    0.00     645    85.0
 144   15:00   76.2    15    2.6   171      8.9   888.3    0.00     749    85.2
 144   15:10   74.5    15    2.4   164      9.1   888.2    0.00     155    85.1
 144   15:20   74.0    16    2.8   180     10.2   888.1    0.00     402    84.8
 144   15:30   73.5    16    2.9   170      9.3   888.2    0.00     249    84.2
 144   15:40   75.3    15    2.0   177      8.3   888.2    0.00     664    83.5
 144   15:50   75.7    15    2.1   158     10.2   888.0    0.00     394    83.1
 144   16:00   74.2    16    2.2   168      8.5   888.0    0.00     208    83.0
 144   16:10   75.4    16    1.7   182      6.7   887.9    0.00     552    82.7
 144   16:20   75.5    15    2.3   169      8.8   887.8    0.00     351    82.4
 144   16:30   74.7    16    1.9   151      6.1   887.7    0.00     370    82.2
 144   16:40   74.7    15    2.1   162      7.0   887.6    0.00     235    82.0
 144   16:50   73.8    16    2.0   183      8.4   887.5    0.00     150    81.7
 144   17:00   73.9    16    2.1   178      6.6   887.4    0.00     141    81.2
 144   17:10   73.1    17    2.4   164      9.4   887.3    0.00     115    80.6
 144   17:20   74.0    16    1.7   169     11.2   887.2    0.00     276    80.0
 144   17:30   74.8    17    1.7   177     11.5   887.1    0.00     204    79.5
 144   17:40   73.4    17    2.3   168      6.4   887.1    0.00     137    79.1
 144   17:50   73.8    17    1.7   166      5.0   887.1    0.00     206    78.7
 144   18:00   73.6    18    1.5   159      6.2   887.0    0.00     175    78.1
 144   18:10   72.9    17    2.1   159      6.2   887.0    0.00     137    77.6
 144   18:20   72.6    18    2.2   177      6.4   887.0    0.00     103    77.1
 144   18:30   72.4    17    2.0   155      6.3   887.0    0.00      71    76.7
 144   18:40   72.2    17    1.7   154      6.5   887.0    0.00      18    76.3
 144   18:50   71.7    18    1.6   176      6.3   887.0    0.00      10    75.9
 144   19:00   71.2    19    1.3   172      4.1   887.0    0.00       0    75.5
 144   19:10   70.8    19    1.9   183      6.9   887.1    0.00       0    75.1
 144   19:20   69.4    20    3.1   202      9.3   887.4    0.00       0    74.8
 144   19:30   70.4    13    4.1   210     10.4   887.4    0.00       0    74.5
 144   19:40   70.3    13    3.9   210     10.4   887.5    0.00       0    74.1
 144   19:50   69.7    13    3.1   212      8.3   887.6    0.00       0    73.8
 144   20:00   69.1    14    2.3   225      7.3   887.7    0.00       0    73.4
 144   20:10   68.5    14    2.5   218      9.1   887.8    0.00       0    73.0
 144   20:20   67.9    14    1.6   221      6.9   887.9    0.00       0    72.6
 144   20:30   66.8    16    0.6    34      2.8   888.1    0.00       0    72.2
 144   20:40   66.3    16    1.0    57      3.1   888.2    0.00       0    71.8
 144   20:50   64.4    19    0.4    60      2.0   888.3    0.00       0    71.5
 144   21:00   63.2    19    0.4   101      2.0   888.4    0.00       0    71.1
 144   21:10   62.5    20    0.2   191      1.7   888.4    0.00       0    70.7
 144   21:20   62.4    19    0.4   107      2.6   888.5    0.00       0    70.3
 144   21:30   62.8    19    0.1   137      0.8   888.5    0.00       0    70.0
 144   21:40   61.4    22    0.5   198      2.9   888.6    0.00       0    69.6
 144   21:50   61.2    24    1.3   178      4.2   888.6    0.00       0    69.3
 144   22:00   59.8    24    0.6   194      2.2   888.7    0.00       0    69.0
 144   22:10   60.2    24    1.3   103      4.5   888.6    0.00       0    68.7
 144   22:20   60.5    22    1.9    96      9.1   888.6    0.00       0    68.4
 144   22:30   61.0    23    1.9   227      5.7   888.6    0.00       0    68.1
 144   22:40   58.7    26    0.5   166      1.9   888.6    0.00       0    67.8
 144   22:50   57.2    28    0.6   210      2.5   888.8    0.00       0    67.6
 144   23:00   56.1    29    0.0   201      0.9   888.8    0.00       0    67.3
 144   23:10   54.7    31    0.8   215      4.5   888.8    0.00       0    67.0
 144   23:20   55.4    30    0.7   199      3.5   888.7    0.00       0    66.8
 144   23:30   55.0    31    0.5   225      4.2   888.7    0.00       0    66.5
 144   23:40   54.3    32    0.0    58      0.7   888.7    0.00       0    66.2
 144   23:50   53.4    33    0.0    66      0.6   888.8    0.00       0    65.9
 145    0:00   52.6    34    0.0     0      0.0   888.8    0.00       0    65.7
 145    0:10   52.1    35    0.0   222      0.4   888.8    0.00       0    65.4
 145    0:20   51.5    36    0.4   323      1.4   888.7    0.00       0    65.2
 145    0:30   51.2    38    0.4    28      1.8   888.7    0.00       0    64.9
 145    0:40   50.6    40    0.6    36      2.0   888.7    0.00       0    64.7
 145    0:50   50.4    41    1.3    31      2.5   888.7    0.00       0    64.4
 145    1:00   51.1    38    1.7     3      3.7   888.7    0.00       0    64.2
 145    1:10   51.4    37    1.9    18      3.6   888.7    0.00       0    64.0
 145    1:20   51.0    38    1.3    58      3.1   888.6    0.00       0    63.8
 145    1:30   50.7    37    0.8    48      2.9   888.6    0.00       0    63.7
 145    1:40   50.3    39    0.8   261      2.1   888.6    0.00       0    63.5
 145    1:50   49.6    41    0.1    54      2.0   888.7    0.00       0    63.3
 145    2:00   48.7    44    1.4    41      3.4   888.7    0.00       0    63.0
 145    2:10   48.3    43    0.9    32      2.0   888.7    0.00       0    62.8
 145    2:20   47.6    46    1.1   266      2.9   888.7    0.00       0    62.6

Return to Alamo, Nevada graphs page.


Western Regional Climate Center,wrcc@dri.edu